sensor_id;sensor_type;location;lat;lon;timestamp;pressure;altitude;pressure_sealevel;temperature;humidity
49825;BME280;35714;55.708;37.478;2023-11-21T00:00:49;98854.50;;;-4.58;49.34
49825;BME280;35714;55.708;37.478;2023-11-21T00:03:15;98851.69;;;-4.57;49.00
49825;BME280;35714;55.708;37.478;2023-11-21T00:05:41;98847.84;;;-4.62;48.99
49825;BME280;35714;55.708;37.478;2023-11-21T00:08:08;98832.56;;;-4.68;49.35
49825;BME280;35714;55.708;37.478;2023-11-21T00:10:34;98851.78;;;-4.66;49.15
49825;BME280;35714;55.708;37.478;2023-11-21T00:13:00;98858.50;;;-4.72;48.97
49825;BME280;35714;55.708;37.478;2023-11-21T00:15:28;98854.06;;;-4.72;49.45
49825;BME280;35714;55.708;37.478;2023-11-21T00:17:54;98849.00;;;-4.65;49.50
49825;BME280;35714;55.708;37.478;2023-11-21T00:20:20;98851.84;;;-4.58;49.25
49825;BME280;35714;55.708;37.478;2023-11-21T00:22:46;98851.03;;;-4.59;48.83
49825;BME280;35714;55.708;37.478;2023-11-21T00:25:13;98858.13;;;-4.59;49.14
49825;BME280;35714;55.708;37.478;2023-11-21T00:27:41;98844.88;;;-4.59;49.56
49825;BME280;35714;55.708;37.478;2023-11-21T00:30:07;98856.22;;;-4.49;49.02
49825;BME280;35714;55.708;37.478;2023-11-21T00:32:37;98844.59;;;-4.56;48.68
49825;BME280;35714;55.708;37.478;2023-11-21T00:35:03;98850.13;;;-4.67;48.96
49825;BME280;35714;55.708;37.478;2023-11-21T00:37:30;98853.50;;;-4.75;48.88
49825;BME280;35714;55.708;37.478;2023-11-21T00:39:57;98851.63;;;-4.83;49.15
49825;BME280;35714;55.708;37.478;2023-11-21T00:42:23;98843.31;;;-4.88;49.14
49825;BME280;35714;55.708;37.478;2023-11-21T00:44:50;98843.00;;;-4.85;49.09
49825;BME280;35714;55.708;37.478;2023-11-21T00:47:16;98845.00;;;-4.87;49.06
49825;BME280;35714;55.708;37.478;2023-11-21T00:49:42;98849.72;;;-4.91;48.83
49825;BME280;35714;55.708;37.478;2023-11-21T00:52:09;98841.88;;;-5.00;49.03
49825;BME280;35714;55.708;37.478;2023-11-21T00:54:35;98836.22;;;-5.05;49.10
49825;BME280;35714;55.708;37.478;2023-11-21T00:57:01;98839.22;;;-5.00;49.19
49825;BME280;35714;55.708;37.478;2023-11-21T00:59:27;98843.38;;;-4.98;49.26
49825;BME280;35714;55.708;37.478;2023-11-21T01:01:53;98841.28;;;-4.94;49.04
49825;BME280;35714;55.708;37.478;2023-11-21T01:04:20;98846.94;;;-4.89;49.09
49825;BME280;35714;55.708;37.478;2023-11-21T01:06:45;98847.63;;;-4.87;48.87
49825;BME280;35714;55.708;37.478;2023-11-21T01:09:11;98851.84;;;-4.94;48.97
49825;BME280;35714;55.708;37.478;2023-11-21T01:11:38;98845.19;;;-4.98;48.97
49825;BME280;35714;55.708;37.478;2023-11-21T01:14:04;98838.25;;;-4.99;49.05
49825;BME280;35714;55.708;37.478;2023-11-21T01:16:31;98847.22;;;-4.92;49.16
49825;BME280;35714;55.708;37.478;2023-11-21T01:18:59;98848.97;;;-4.83;49.24
49825;BME280;35714;55.708;37.478;2023-11-21T01:21:25;98840.22;;;-4.83;48.73
49825;BME280;35714;55.708;37.478;2023-11-21T01:23:51;98851.63;;;-4.83;48.87
49825;BME280;35714;55.708;37.478;2023-11-21T01:26:17;98848.00;;;-4.82;49.01
49825;BME280;35714;55.708;37.478;2023-11-21T01:28:43;98852.69;;;-4.76;48.71
49825;BME280;35714;55.708;37.478;2023-11-21T01:31:09;98845.44;;;-4.74;48.50
49825;BME280;35714;55.708;37.478;2023-11-21T01:33:35;98840.44;;;-4.77;48.77
49825;BME280;35714;55.708;37.478;2023-11-21T01:36:00;98838.09;;;-4.80;48.48
49825;BME280;35714;55.708;37.478;2023-11-21T01:38:26;98853.28;;;-4.82;48.58
49825;BME280;35714;55.708;37.478;2023-11-21T01:40:52;98850.28;;;-4.87;48.66
49825;BME280;35714;55.708;37.478;2023-11-21T01:43:18;98861.81;;;-4.88;48.65
49825;BME280;35714;55.708;37.478;2023-11-21T01:45:44;98850.16;;;-4.95;48.79
49825;BME280;35714;55.708;37.478;2023-11-21T01:48:11;98858.97;;;-4.95;48.72
49825;BME280;35714;55.708;37.478;2023-11-21T01:50:38;98855.47;;;-4.95;48.91
49825;BME280;35714;55.708;37.478;2023-11-21T01:53:04;98864.38;;;-4.96;48.73
49825;BME280;35714;55.708;37.478;2023-11-21T01:55:32;98854.41;;;-5.02;48.47
49825;BME280;35714;55.708;37.478;2023-11-21T01:57:59;98851.09;;;-5.04;48.66
49825;BME280;35714;55.708;37.478;2023-11-21T02:00:26;98853.75;;;-5.04;48.62
49825;BME280;35714;55.708;37.478;2023-11-21T02:02:55;98853.63;;;-5.13;48.47
49825;BME280;35714;55.708;37.478;2023-11-21T02:05:22;98846.28;;;-5.19;48.69
49825;BME280;35714;55.708;37.478;2023-11-21T02:07:48;98849.34;;;-5.14;48.69
49825;BME280;35714;55.708;37.478;2023-11-21T02:10:15;98853.63;;;-5.13;48.64
49825;BME280;35714;55.708;37.478;2023-11-21T02:12:42;98854.34;;;-5.11;48.59
49825;BME280;35714;55.708;37.478;2023-11-21T02:15:10;98852.66;;;-5.12;48.49
49825;BME280;35714;55.708;37.478;2023-11-21T02:17:44;98848.84;;;-5.27;48.14
49825;BME280;35714;55.708;37.478;2023-11-21T02:20:11;98858.38;;;-5.34;48.53
49825;BME280;35714;55.708;37.478;2023-11-21T02:22:55;98860.28;;;-5.36;48.79
49825;BME280;35714;55.708;37.478;2023-11-21T02:27:51;98855.31;;;-5.39;48.75
49825;BME280;35714;55.708;37.478;2023-11-21T02:30:17;98872.53;;;-5.35;48.60
49825;BME280;35714;55.708;37.478;2023-11-21T02:32:44;98865.28;;;-5.33;48.07
49825;BME280;35714;55.708;37.478;2023-11-21T02:35:10;98860.88;;;-5.43;47.98
49825;BME280;35714;55.708;37.478;2023-11-21T02:37:37;98862.31;;;-5.48;48.40
49825;BME280;35714;55.708;37.478;2023-11-21T02:40:05;98857.72;;;-5.46;48.33
49825;BME280;35714;55.708;37.478;2023-11-21T02:42:35;98861.16;;;-5.46;48.43
49825;BME280;35714;55.708;37.478;2023-11-21T02:45:01;98869.81;;;-5.44;48.12
49825;BME280;35714;55.708;37.478;2023-11-21T02:47:29;98862.84;;;-5.45;47.89
49825;BME280;35714;55.708;37.478;2023-11-21T02:49:55;98873.94;;;-5.41;48.20
49825;BME280;35714;55.708;37.478;2023-11-21T02:52:21;98873.50;;;-5.36;47.86
49825;BME280;35714;55.708;37.478;2023-11-21T02:54:47;98871.72;;;-5.36;47.61
49825;BME280;35714;55.708;37.478;2023-11-21T02:57:13;98877.16;;;-5.37;47.65
49825;BME280;35714;55.708;37.478;2023-11-21T02:59:39;98878.78;;;-5.36;47.49
49825;BME280;35714;55.708;37.478;2023-11-21T03:02:05;98885.06;;;-5.37;47.54
49825;BME280;35714;55.708;37.478;2023-11-21T03:04:34;98884.06;;;-5.36;47.46
49825;BME280;35714;55.708;37.478;2023-11-21T03:07:00;98886.44;;;-5.33;47.33
49825;BME280;35714;55.708;37.478;2023-11-21T03:09:26;98889.78;;;-5.31;47.20
49825;BME280;35714;55.708;37.478;2023-11-21T03:11:53;98896.69;;;-5.30;47.00
49825;BME280;35714;55.708;37.478;2023-11-21T03:14:21;98888.09;;;-5.32;47.22
49825;BME280;35714;55.708;37.478;2023-11-21T03:16:48;98889.34;;;-5.36;46.88
49825;BME280;35714;55.708;37.478;2023-11-21T03:19:15;98894.53;;;-5.45;47.02
49825;BME280;35714;55.708;37.478;2023-11-21T03:21:40;98892.19;;;-5.48;47.28
49825;BME280;35714;55.708;37.478;2023-11-21T03:24:06;98891.53;;;-5.50;47.17
49825;BME280;35714;55.708;37.478;2023-11-21T03:26:33;98887.88;;;-5.49;47.21
49825;BME280;35714;55.708;37.478;2023-11-21T03:28:59;98884.56;;;-5.51;47.31
49825;BME280;35714;55.708;37.478;2023-11-21T03:31:25;98886.81;;;-5.56;47.16
49825;BME280;35714;55.708;37.478;2023-11-21T03:33:52;98897.66;;;-5.59;47.30
49825;BME280;35714;55.708;37.478;2023-11-21T03:36:19;98888.78;;;-5.68;47.39
49825;BME280;35714;55.708;37.478;2023-11-21T03:38:45;98903.81;;;-5.68;48.08
49825;BME280;35714;55.708;37.478;2023-11-21T03:41:11;98897.84;;;-5.70;47.95
49825;BME280;35714;55.708;37.478;2023-11-21T03:43:37;98906.59;;;-5.70;47.96
49825;BME280;35714;55.708;37.478;2023-11-21T03:46:04;98911.06;;;-5.70;48.00
49825;BME280;35714;55.708;37.478;2023-11-21T03:48:30;98902.13;;;-5.69;48.05
49825;BME280;35714;55.708;37.478;2023-11-21T03:50:56;98907.13;;;-5.66;48.26
49825;BME280;35714;55.708;37.478;2023-11-21T03:53:21;98892.44;;;-5.69;48.36
49825;BME280;35714;55.708;37.478;2023-11-21T03:55:47;98906.84;;;-5.63;48.40
49825;BME280;35714;55.708;37.478;2023-11-21T03:58:14;98901.28;;;-5.60;48.00
49825;BME280;35714;55.708;37.478;2023-11-21T04:00:40;98897.09;;;-5.53;48.44
49825;BME280;35714;55.708;37.478;2023-11-21T04:03:07;98897.78;;;-5.51;48.04
49825;BME280;35714;55.708;37.478;2023-11-21T04:05:32;98900.41;;;-5.51;48.61
49825;BME280;35714;55.708;37.478;2023-11-21T04:07:58;98905.69;;;-5.51;48.40
49825;BME280;35714;55.708;37.478;2023-11-21T04:10:24;98904.00;;;-5.52;48.56
49825;BME280;35714;55.708;37.478;2023-11-21T04:12:50;98901.09;;;-5.49;48.29
49825;BME280;35714;55.708;37.478;2023-11-21T04:15:15;98901.50;;;-5.44;48.70
49825;BME280;35714;55.708;37.478;2023-11-21T04:17:42;98893.72;;;-5.45;48.28
49825;BME280;35714;55.708;37.478;2023-11-21T04:20:09;98904.16;;;-5.44;48.76
49825;BME280;35714;55.708;37.478;2023-11-21T04:22:43;98902.84;;;-5.39;48.63
49825;BME280;35714;55.708;37.478;2023-11-21T04:25:14;98896.59;;;-5.38;48.43
49825;BME280;35714;55.708;37.478;2023-11-21T04:27:41;98895.50;;;-5.46;48.57
49825;BME280;35714;55.708;37.478;2023-11-21T04:30:11;98900.13;;;-5.48;48.87
49825;BME280;35714;55.708;37.478;2023-11-21T04:32:37;98901.22;;;-5.50;48.75
49825;BME280;35714;55.708;37.478;2023-11-21T04:35:05;98902.38;;;-5.53;49.00
49825;BME280;35714;55.708;37.478;2023-11-21T04:37:31;98910.28;;;-5.53;49.00
49825;BME280;35714;55.708;37.478;2023-11-21T04:39:57;98910.28;;;-5.53;49.39
49825;BME280;35714;55.708;37.478;2023-11-21T04:42:22;98909.63;;;-5.55;49.13
49825;BME280;35714;55.708;37.478;2023-11-21T04:44:49;98914.59;;;-5.52;49.13
49825;BME280;35714;55.708;37.478;2023-11-21T04:47:15;98928.34;;;-5.48;49.14
49825;BME280;35714;55.708;37.478;2023-11-21T04:49:45;98931.97;;;-5.49;49.35
49825;BME280;35714;55.708;37.478;2023-11-21T04:52:13;98937.69;;;-5.54;49.35
49825;BME280;35714;55.708;37.478;2023-11-21T04:54:38;98927.41;;;-5.57;49.21
49825;BME280;35714;55.708;37.478;2023-11-21T04:57:05;98925.59;;;-5.56;49.24
49825;BME280;35714;55.708;37.478;2023-11-21T04:59:34;98934.34;;;-5.56;49.70
49825;BME280;35714;55.708;37.478;2023-11-21T05:02:00;98940.03;;;-5.51;49.63
49825;BME280;35714;55.708;37.478;2023-11-21T05:04:26;98930.75;;;-5.55;49.23
49825;BME280;35714;55.708;37.478;2023-11-21T05:06:53;98943.50;;;-5.40;49.46
49825;BME280;35714;55.708;37.478;2023-11-21T05:09:19;98945.41;;;-5.43;49.21
49825;BME280;35714;55.708;37.478;2023-11-21T05:11:45;98948.50;;;-5.47;49.16
49825;BME280;35714;55.708;37.478;2023-11-21T05:14:11;98949.63;;;-5.50;49.29
49825;BME280;35714;55.708;37.478;2023-11-21T05:16:37;98949.34;;;-5.47;49.66
49825;BME280;35714;55.708;37.478;2023-11-21T05:19:03;98956.56;;;-5.49;49.38
49825;BME280;35714;55.708;37.478;2023-11-21T05:21:30;98952.41;;;-5.51;49.53
49825;BME280;35714;55.708;37.478;2023-11-21T05:24:00;98946.88;;;-5.58;49.63
49825;BME280;35714;55.708;37.478;2023-11-21T05:26:26;98947.16;;;-5.61;49.56
49825;BME280;35714;55.708;37.478;2023-11-21T05:28:53;98941.88;;;-5.61;49.26
49825;BME280;35714;55.708;37.478;2023-11-21T05:31:19;98948.00;;;-5.60;49.66
49825;BME280;35714;55.708;37.478;2023-11-21T05:33:46;98940.75;;;-5.58;49.27
49825;BME280;35714;55.708;37.478;2023-11-21T05:36:12;98932.28;;;-5.62;49.51
49825;BME280;35714;55.708;37.478;2023-11-21T05:38:38;98934.66;;;-5.59;49.72
49825;BME280;35714;55.708;37.478;2023-11-21T05:41:04;98931.47;;;-5.63;49.67
49825;BME280;35714;55.708;37.478;2023-11-21T05:43:30;98930.22;;;-5.68;49.75
49825;BME280;35714;55.708;37.478;2023-11-21T05:45:58;98936.88;;;-5.64;49.81
49825;BME280;35714;55.708;37.478;2023-11-21T05:48:24;98940.22;;;-5.62;49.91
49825;BME280;35714;55.708;37.478;2023-11-21T05:50:51;98948.81;;;-5.60;49.40
49825;BME280;35714;55.708;37.478;2023-11-21T05:53:17;98945.78;;;-5.65;49.44
49825;BME280;35714;55.708;37.478;2023-11-21T05:55:43;98956.34;;;-5.65;49.56
49825;BME280;35714;55.708;37.478;2023-11-21T05:58:09;98955.81;;;-5.69;49.75
49825;BME280;35714;55.708;37.478;2023-11-21T06:00:36;98949.66;;;-5.69;49.66
49825;BME280;35714;55.708;37.478;2023-11-21T06:03:02;98953.97;;;-5.68;49.98
49825;BME280;35714;55.708;37.478;2023-11-21T06:05:28;98951.06;;;-5.65;50.46
49825;BME280;35714;55.708;37.478;2023-11-21T06:07:56;98948.25;;;-5.54;50.14
49825;BME280;35714;55.708;37.478;2023-11-21T06:10:25;98959.63;;;-5.44;49.74
49825;BME280;35714;55.708;37.478;2023-11-21T06:12:52;98974.34;;;-5.41;50.03
49825;BME280;35714;55.708;37.478;2023-11-21T06:15:18;98970.00;;;-5.32;50.12
49825;BME280;35714;55.708;37.478;2023-11-21T06:17:46;98970.13;;;-5.24;49.58
49825;BME280;35714;55.708;37.478;2023-11-21T06:20:15;98958.88;;;-5.26;49.74
49825;BME280;35714;55.708;37.478;2023-11-21T06:22:42;98970.63;;;-5.11;49.68
49825;BME280;35714;55.708;37.478;2023-11-21T06:25:08;98969.00;;;-4.94;49.49
49825;BME280;35714;55.708;37.478;2023-11-21T06:27:38;98974.50;;;-4.77;49.39
49825;BME280;35714;55.708;37.478;2023-11-21T06:30:04;98967.47;;;-4.68;48.78
49825;BME280;35714;55.708;37.478;2023-11-21T06:32:32;98968.16;;;-4.66;48.66
49825;BME280;35714;55.708;37.478;2023-11-21T06:34:58;98969.59;;;-4.72;48.65
49825;BME280;35714;55.708;37.478;2023-11-21T06:37:30;98972.00;;;-4.79;48.75
49825;BME280;35714;55.708;37.478;2023-11-21T06:39:58;98975.31;;;-4.77;48.96
49825;BME280;35714;55.708;37.478;2023-11-21T06:42:25;98981.31;;;-4.75;48.80
49825;BME280;35714;55.708;37.478;2023-11-21T06:44:51;98980.31;;;-4.74;48.42
49825;BME280;35714;55.708;37.478;2023-11-21T06:47:17;98978.53;;;-4.73;48.66
49825;BME280;35714;55.708;37.478;2023-11-21T06:49:46;98972.38;;;-4.74;48.52
49825;BME280;35714;55.708;37.478;2023-11-21T06:52:15;98978.16;;;-4.60;48.82
49825;BME280;35714;55.708;37.478;2023-11-21T06:54:41;98973.63;;;-4.50;48.75
49825;BME280;35714;55.708;37.478;2023-11-21T06:57:06;98976.13;;;-4.48;48.01
49825;BME280;35714;55.708;37.478;2023-11-21T06:59:33;98976.97;;;-4.48;48.29
49825;BME280;35714;55.708;37.478;2023-11-21T07:01:59;98972.06;;;-4.43;48.24
49825;BME280;35714;55.708;37.478;2023-11-21T07:04:25;98971.06;;;-4.42;47.55
49825;BME280;35714;55.708;37.478;2023-11-21T07:06:54;98975.00;;;-4.46;47.65
49825;BME280;35714;55.708;37.478;2023-11-21T07:09:20;98971.69;;;-4.48;47.23
49825;BME280;35714;55.708;37.478;2023-11-21T07:11:49;98976.97;;;-4.48;47.19
49825;BME280;35714;55.708;37.478;2023-11-21T07:14:15;98978.53;;;-4.55;47.20
49825;BME280;35714;55.708;37.478;2023-11-21T07:16:43;98983.53;;;-4.52;47.39
49825;BME280;35714;55.708;37.478;2023-11-21T07:19:09;98986.84;;;-4.50;47.03
49825;BME280;35714;55.708;37.478;2023-11-21T07:21:36;98979.22;;;-4.53;47.00
49825;BME280;35714;55.708;37.478;2023-11-21T07:24:03;98985.94;;;-4.59;46.99
49825;BME280;35714;55.708;37.478;2023-11-21T07:26:30;98992.50;;;-4.63;47.12
49825;BME280;35714;55.708;37.478;2023-11-21T07:28:56;98996.81;;;-4.62;47.50
49825;BME280;35714;55.708;37.478;2023-11-21T07:31:22;98991.25;;;-4.59;47.72
49825;BME280;35714;55.708;37.478;2023-11-21T07:33:50;98985.66;;;-4.56;47.27
49825;BME280;35714;55.708;37.478;2023-11-21T07:36:17;98992.06;;;-4.58;47.09
49825;BME280;35714;55.708;37.478;2023-11-21T07:38:49;98988.75;;;-4.60;47.48
49825;BME280;35714;55.708;37.478;2023-11-21T07:41:15;98979.97;;;-4.61;47.04
49825;BME280;35714;55.708;37.478;2023-11-21T07:43:42;98988.19;;;-4.64;47.19
49825;BME280;35714;55.708;37.478;2023-11-21T07:46:08;98995.97;;;-4.62;47.11
49825;BME280;35714;55.708;37.478;2023-11-21T07:48:34;98997.66;;;-4.61;47.20
49825;BME280;35714;55.708;37.478;2023-11-21T07:51:03;98989.13;;;-4.55;47.11
49825;BME280;35714;55.708;37.478;2023-11-21T07:53:33;99001.75;;;-4.49;46.92
49825;BME280;35714;55.708;37.478;2023-11-21T07:56:03;98989.44;;;-4.40;47.48
49825;BME280;35714;55.708;37.478;2023-11-21T07:58:30;98996.03;;;-4.26;46.97
49825;BME280;35714;55.708;37.478;2023-11-21T08:00:57;98985.38;;;-4.17;46.99
49825;BME280;35714;55.708;37.478;2023-11-21T08:03:23;98988.63;;;-4.05;46.80
49825;BME280;35714;55.708;37.478;2023-11-21T08:05:49;98976.00;;;-3.93;46.60
49825;BME280;35714;55.708;37.478;2023-11-21T08:08:15;98985.13;;;-3.87;45.96
49825;BME280;35714;55.708;37.478;2023-11-21T08:10:43;98987.56;;;-3.94;45.81
49825;BME280;35714;55.708;37.478;2023-11-21T08:13:09;98983.16;;;-4.03;45.79
49825;BME280;35714;55.708;37.478;2023-11-21T08:15:40;99001.19;;;-4.07;46.00
49825;BME280;35714;55.708;37.478;2023-11-21T08:18:06;98990.59;;;-4.07;45.82
49825;BME280;35714;55.708;37.478;2023-11-21T08:20:33;98976.66;;;-4.09;46.00
49825;BME280;35714;55.708;37.478;2023-11-21T08:23:00;98975.75;;;-4.00;46.23
49825;BME280;35714;55.708;37.478;2023-11-21T08:25:26;98986.13;;;-3.88;45.99
49825;BME280;35714;55.708;37.478;2023-11-21T08:27:52;98978.19;;;-3.88;45.19
49825;BME280;35714;55.708;37.478;2023-11-21T08:30:18;98983.53;;;-3.98;45.28
49825;BME280;35714;55.708;37.478;2023-11-21T08:32:44;98966.97;;;-4.00;45.84
49825;BME280;35714;55.708;37.478;2023-11-21T08:35:10;98963.72;;;-3.94;45.71
49825;BME280;35714;55.708;37.478;2023-11-21T08:37:37;98979.22;;;-3.81;45.85
49825;BME280;35714;55.708;37.478;2023-11-21T08:40:05;98976.00;;;-3.67;45.29
49825;BME280;35714;55.708;37.478;2023-11-21T08:42:35;98965.47;;;-3.58;45.56
49825;BME280;35714;55.708;37.478;2023-11-21T08:45:02;98966.56;;;-3.43;45.50
49825;BME280;35714;55.708;37.478;2023-11-21T08:47:31;98960.31;;;-3.34;44.90
49825;BME280;35714;55.708;37.478;2023-11-21T08:49:57;98963.31;;;-3.29;44.93
49825;BME280;35714;55.708;37.478;2023-11-21T08:52:24;98964.72;;;-3.16;44.61
49825;BME280;35714;55.708;37.478;2023-11-21T08:54:50;98973.69;;;-3.17;43.88
49825;BME280;35714;55.708;37.478;2023-11-21T08:57:22;98964.94;;;-3.36;43.94
49825;BME280;35714;55.708;37.478;2023-11-21T08:59:48;98965.38;;;-3.49;44.37
49825;BME280;35714;55.708;37.478;2023-11-21T09:02:26;98967.19;;;-3.49;44.63
49825;BME280;35714;55.708;37.478;2023-11-21T09:04:52;98977.25;;;-3.53;44.62
49825;BME280;35714;55.708;37.478;2023-11-21T09:07:19;98986.66;;;-3.58;44.63
49825;BME280;35714;55.708;37.478;2023-11-21T09:09:47;98984.00;;;-3.58;44.87
49825;BME280;35714;55.708;37.478;2023-11-21T09:12:13;98981.16;;;-3.65;44.82
49825;BME280;35714;55.708;37.478;2023-11-21T09:14:39;98992.38;;;-3.71;45.27
49825;BME280;35714;55.708;37.478;2023-11-21T09:17:05;98981.91;;;-3.73;45.75
49825;BME280;35714;55.708;37.478;2023-11-21T09:19:43;98994.72;;;-3.68;45.27
49825;BME280;35714;55.708;37.478;2023-11-21T09:22:18;98989.88;;;-3.73;45.26
49825;BME280;35714;55.708;37.478;2023-11-21T09:24:43;98994.50;;;-3.75;45.43
49825;BME280;35714;55.708;37.478;2023-11-21T09:27:09;99002.28;;;-3.73;45.96
49825;BME280;35714;55.708;37.478;2023-11-21T09:29:35;99003.41;;;-3.76;45.95
49825;BME280;35714;55.708;37.478;2023-11-21T09:32:07;99011.00;;;-3.81;46.01
49825;BME280;35714;55.708;37.478;2023-11-21T09:34:34;99003.81;;;-3.89;46.21
49825;BME280;35714;55.708;37.478;2023-11-21T09:37:04;98994.97;;;-3.97;46.67
49825;BME280;35714;55.708;37.478;2023-11-21T09:39:33;98994.38;;;-3.91;46.95
49825;BME280;35714;55.708;37.478;2023-11-21T09:42:10;98985.03;;;-3.77;47.02
49825;BME280;35714;55.708;37.478;2023-11-21T09:47:34;99001.28;;;-3.54;46.67
49825;BME280;35714;55.708;37.478;2023-11-21T09:50:02;98997.94;;;-3.56;46.16
49825;BME280;35714;55.708;37.478;2023-11-21T09:52:31;98997.66;;;-3.53;46.16
49825;BME280;35714;55.708;37.478;2023-11-21T09:54:58;99006.25;;;-3.51;46.25
49825;BME280;35714;55.708;37.478;2023-11-21T09:57:26;99005.75;;;-3.55;46.24
49825;BME280;35714;55.708;37.478;2023-11-21T09:59:54;99009.88;;;-3.52;46.54
49825;BME280;35714;55.708;37.478;2023-11-21T10:02:27;99011.25;;;-3.48;46.43
49825;BME280;35714;55.708;37.478;2023-11-21T10:04:55;99001.31;;;-3.46;46.33
49825;BME280;35714;55.708;37.478;2023-11-21T10:07:22;99018.53;;;-3.50;46.32
49825;BME280;35714;55.708;37.478;2023-11-21T10:09:51;99007.53;;;-3.55;46.88
49825;BME280;35714;55.708;37.478;2023-11-21T10:12:17;99008.84;;;-3.59;46.89
49825;BME280;35714;55.708;37.478;2023-11-21T10:14:47;99012.34;;;-3.59;46.76
49825;BME280;35714;55.708;37.478;2023-11-21T10:17:14;99010.66;;;-3.60;46.78
49825;BME280;35714;55.708;37.478;2023-11-21T10:19:42;99007.78;;;-3.67;46.80
49825;BME280;35714;55.708;37.478;2023-11-21T10:22:09;99023.19;;;-3.70;47.15
49825;BME280;35714;55.708;37.478;2023-11-21T10:24:35;99029.91;;;-3.76;47.36
49825;BME280;35714;55.708;37.478;2023-11-21T10:27:03;99023.63;;;-3.75;47.63
49825;BME280;35714;55.708;37.478;2023-11-21T10:29:29;99016.44;;;-3.65;47.53
49825;BME280;35714;55.708;37.478;2023-11-21T10:31:56;99006.38;;;-3.61;47.68
49825;BME280;35714;55.708;37.478;2023-11-21T10:34:24;99015.50;;;-3.55;47.47
49825;BME280;35714;55.708;37.478;2023-11-21T10:36:50;99006.88;;;-3.57;47.56
49825;BME280;35714;55.708;37.478;2023-11-21T10:39:17;99013.84;;;-3.56;47.73
49825;BME280;35714;55.708;37.478;2023-11-21T10:41:47;99009.88;;;-3.52;47.72
49825;BME280;35714;55.708;37.478;2023-11-21T10:44:14;99017.16;;;-3.54;47.51
49825;BME280;35714;55.708;37.478;2023-11-21T10:46:53;99023.25;;;-3.62;47.04
49825;BME280;35714;55.708;37.478;2023-11-21T10:49:23;99010.69;;;-3.78;46.80
49825;BME280;35714;55.708;37.478;2023-11-21T10:51:51;99016.91;;;-3.87;46.83
49825;BME280;35714;55.708;37.478;2023-11-21T10:54:23;99011.91;;;-3.90;47.15
49825;BME280;35714;55.708;37.478;2023-11-21T10:56:53;99017.22;;;-3.90;47.30
49825;BME280;35714;55.708;37.478;2023-11-21T10:59:19;99016.22;;;-3.89;47.46
49825;BME280;35714;55.708;37.478;2023-11-21T11:01:47;99020.94;;;-3.83;47.15
49825;BME280;35714;55.708;37.478;2023-11-21T11:04:18;99021.97;;;-3.76;46.99
49825;BME280;35714;55.708;37.478;2023-11-21T11:06:44;99020.47;;;-3.78;46.55
49825;BME280;35714;55.708;37.478;2023-11-21T11:09:14;99025.91;;;-3.80;46.37
49825;BME280;35714;55.708;37.478;2023-11-21T11:11:42;99019.03;;;-3.91;46.07
49825;BME280;35714;55.708;37.478;2023-11-21T11:14:13;99026.06;;;-4.00;46.39
49825;BME280;35714;55.708;37.478;2023-11-21T11:16:40;99023.72;;;-4.03;46.07
49825;BME280;35714;55.708;37.478;2023-11-21T11:19:07;99014.31;;;-4.15;46.13
49825;BME280;35714;55.708;37.478;2023-11-21T11:21:46;99026.22;;;-4.19;46.62
49825;BME280;35714;55.708;37.478;2023-11-21T11:24:43;99017.97;;;-4.16;46.70
49825;BME280;35714;55.708;37.478;2023-11-21T11:27:44;99036.59;;;-4.08;46.52
49825;BME280;35714;55.708;37.478;2023-11-21T11:30:22;99031.28;;;-4.08;46.41
49825;BME280;35714;55.708;37.478;2023-11-21T11:35:42;99036.81;;;-4.01;46.69
49825;BME280;35714;55.708;37.478;2023-11-21T11:38:12;99036.06;;;-4.11;46.45
49825;BME280;35714;55.708;37.478;2023-11-21T11:40:40;99041.66;;;-4.14;46.63
49825;BME280;35714;55.708;37.478;2023-11-21T11:43:07;99040.81;;;-4.15;47.02
49825;BME280;35714;55.708;37.478;2023-11-21T11:45:34;99046.81;;;-4.13;46.82
49825;BME280;35714;55.708;37.478;2023-11-21T11:48:02;99051.75;;;-4.28;46.84
49825;BME280;35714;55.708;37.478;2023-11-21T11:50:29;99047.50;;;-4.39;46.94
49825;BME280;35714;55.708;37.478;2023-11-21T11:53:12;99049.09;;;-4.46;46.86
49825;BME280;35714;55.708;37.478;2023-11-21T11:55:38;99039.09;;;-4.52;46.53
49825;BME280;35714;55.708;37.478;2023-11-21T11:58:06;99048.59;;;-4.59;46.71
49825;BME280;35714;55.708;37.478;2023-11-21T12:00:36;99045.34;;;-4.53;46.86
49825;BME280;35714;55.708;37.478;2023-11-21T12:03:07;99046.06;;;-4.51;46.67
49825;BME280;35714;55.708;37.478;2023-11-21T12:05:34;99054.38;;;-4.46;46.29
49825;BME280;35714;55.708;37.478;2023-11-21T12:08:11;99063.00;;;-4.44;46.41
49825;BME280;35714;55.708;37.478;2023-11-21T12:10:39;99069.97;;;-4.43;46.25
49825;BME280;35714;55.708;37.478;2023-11-21T12:13:11;99060.66;;;-4.47;46.24
49825;BME280;35714;55.708;37.478;2023-11-21T12:15:39;99070.56;;;-4.49;46.21
49825;BME280;35714;55.708;37.478;2023-11-21T12:18:07;99071.53;;;-4.50;46.19
49825;BME280;35714;55.708;37.478;2023-11-21T12:20:33;99068.34;;;-4.54;46.31
49825;BME280;35714;55.708;37.478;2023-11-21T12:23:05;99071.81;;;-4.53;46.56
49825;BME280;35714;55.708;37.478;2023-11-21T12:25:31;99061.38;;;-4.55;46.47
49825;BME280;35714;55.708;37.478;2023-11-21T12:27:59;99072.81;;;-4.54;46.73
49825;BME280;35714;55.708;37.478;2023-11-21T12:30:30;99071.97;;;-4.55;46.76
49825;BME280;35714;55.708;37.478;2023-11-21T12:32:59;99079.91;;;-4.55;46.46
49825;BME280;35714;55.708;37.478;2023-11-21T12:35:27;99072.81;;;-4.54;46.46
49825;BME280;35714;55.708;37.478;2023-11-21T12:37:54;99078.50;;;-4.49;46.68
49825;BME280;35714;55.708;37.478;2023-11-21T12:40:20;99084.16;;;-4.44;46.69
49825;BME280;35714;55.708;37.478;2023-11-21T12:42:51;99087.50;;;-4.42;46.46
49825;BME280;35714;55.708;37.478;2023-11-21T12:47:44;99084.47;;;-4.47;46.26
49825;BME280;35714;55.708;37.478;2023-11-21T12:50:13;99074.16;;;-4.50;46.34
49825;BME280;35714;55.708;37.478;2023-11-21T12:52:45;99093.09;;;-4.45;46.26
49825;BME280;35714;55.708;37.478;2023-11-21T12:55:16;99070.16;;;-4.54;46.00
49825;BME280;35714;55.708;37.478;2023-11-21T12:57:45;99091.72;;;-4.49;46.19
49825;BME280;35714;55.708;37.478;2023-11-21T13:00:13;99073.09;;;-4.57;46.00
49825;BME280;35714;55.708;37.478;2023-11-21T13:02:51;99070.34;;;-4.65;46.40